createdAt,value
2023-04-28T00:00:40.136Z,8.20
2023-04-28T00:03:21.252Z,8.15
2023-04-28T00:05:49.792Z,8.09
2023-04-28T00:08:18.175Z,8.02
2023-04-28T00:10:46.507Z,7.94
2023-04-28T00:13:14.720Z,7.89
2023-04-28T00:15:43.912Z,7.82
2023-04-28T00:21:22.414Z,7.67
2023-04-28T00:23:51.390Z,7.59
2023-04-28T00:26:19.696Z,7.55
2023-04-28T00:28:48.106Z,7.53
2023-04-28T00:31:17.158Z,7.51
2023-04-28T00:33:53.044Z,7.49
2023-04-28T00:36:22.037Z,7.47
2023-04-28T00:38:50.189Z,7.44
2023-04-28T00:41:18.494Z,7.42
2023-04-28T00:43:49.864Z,7.37
2023-04-28T00:46:27.991Z,7.22
2023-04-28T00:48:56.444Z,7.15
2023-04-28T00:51:25.129Z,7.12
2023-04-28T00:53:53.385Z,7.03
2023-04-28T00:56:24.638Z,6.96
2023-04-28T00:58:53.314Z,6.88
2023-04-28T01:01:21.742Z,6.76
2023-04-28T01:03:50.406Z,6.70
2023-04-28T01:06:40.151Z,6.60
2023-04-28T01:09:08.681Z,6.53
2023-04-28T01:11:41.014Z,6.45
2023-04-28T01:14:13.945Z,6.45
2023-04-28T01:16:44.344Z,6.46
2023-04-28T01:19:25.293Z,6.45
2023-04-28T01:21:54.269Z,6.41
2023-04-28T01:24:24.607Z,6.36
2023-04-28T01:26:54.949Z,6.33
2023-04-28T01:29:24.022Z,6.32
2023-04-28T01:31:53.147Z,6.31
2023-04-28T01:34:21.528Z,6.32
2023-04-28T01:36:51.002Z,6.34
2023-04-28T01:39:21.077Z,6.34
2023-04-28T01:41:49.499Z,6.32
2023-04-28T01:44:19.046Z,6.30
2023-04-28T01:46:50.653Z,6.27
2023-04-28T01:49:19.026Z,6.25
2023-04-28T01:51:47.207Z,6.23
2023-04-28T01:54:15.516Z,6.21
2023-04-28T01:56:46.112Z,6.18
2023-04-28T01:59:16.294Z,6.13
2023-04-28T02:01:44.813Z,6.09
2023-04-28T02:04:13.153Z,6.05
2023-04-28T02:06:41.785Z,5.98
2023-04-28T02:09:10.015Z,5.95
2023-04-28T02:11:38.465Z,5.92
2023-04-28T02:14:06.805Z,5.88
2023-04-28T02:16:37.023Z,5.86
2023-04-28T02:19:08.251Z,5.82
2023-04-28T02:21:36.540Z,5.72
2023-04-28T02:24:05.042Z,5.67
2023-04-28T02:26:36.788Z,5.70
2023-04-28T02:29:05.197Z,5.67
2023-04-28T02:31:34.169Z,5.58
2023-04-28T02:34:02.823Z,5.53
2023-04-28T02:36:32.235Z,5.52
2023-04-28T02:39:00.620Z,5.50
2023-04-28T02:41:33.219Z,5.50
2023-04-28T02:44:04.028Z,5.50
2023-04-28T02:46:32.257Z,5.49
2023-04-28T02:49:00.327Z,5.48
2023-04-28T02:51:29.057Z,5.46
2023-04-28T02:53:58.358Z,5.45
2023-04-28T02:56:46.600Z,5.42
2023-04-28T02:59:14.880Z,5.35
2023-04-28T03:01:43.616Z,5.27
2023-04-28T03:04:12.271Z,5.23
2023-04-28T03:06:41.567Z,5.18
2023-04-28T03:09:10.439Z,5.15
2023-04-28T03:11:40.150Z,5.14
2023-04-28T03:14:08.432Z,5.12
2023-04-28T03:16:36.640Z,5.09
2023-04-28T03:19:05.091Z,5.05
2023-04-28T03:21:35.702Z,5.04
2023-04-28T03:24:05.705Z,5.06
2023-04-28T03:26:37.774Z,5.11
2023-04-28T03:29:06.075Z,5.18
2023-04-28T03:31:34.474Z,5.27
2023-04-28T03:34:04.410Z,5.38
2023-04-28T03:36:34.865Z,5.52
2023-04-28T03:39:11.057Z,5.76
2023-04-28T03:41:39.625Z,6.03
2023-04-28T03:44:28.318Z,6.40
2023-04-28T03:46:56.663Z,6.78
2023-04-28T03:49:25.451Z,7.17
2023-04-28T03:51:53.785Z,7.55
2023-04-28T03:54:22.705Z,7.91
2023-04-28T03:56:50.902Z,8.30
2023-04-28T03:59:19.483Z,8.71
2023-04-28T04:01:48.245Z,9.12
2023-04-28T04:04:17.974Z,9.53
2023-04-28T04:06:48.188Z,9.87
2023-04-28T04:09:16.665Z,10.16
2023-04-28T04:11:45.072Z,10.50
2023-04-28T04:14:13.154Z,10.88
2023-04-28T04:16:43.146Z,11.28
2023-04-28T04:19:14.036Z,11.65
2023-04-28T04:21:43.165Z,11.96
2023-04-28T04:24:11.438Z,12.25
2023-04-28T04:26:40.849Z,12.59
2023-04-28T04:29:54.474Z,13.05
2023-04-28T04:32:23.466Z,13.54
2023-04-28T04:34:52.056Z,13.96
2023-04-28T04:49:02.538Z,15.86
2023-04-28T04:51:30.964Z,16.87
2023-04-28T04:53:59.480Z,17.10
2023-04-28T04:56:27.929Z,17.26
2023-04-28T04:58:58.256Z,17.51
2023-04-28T05:01:49.144Z,17.74
2023-04-28T05:04:17.377Z,17.91
2023-04-28T05:06:48.180Z,18.12
2023-04-28T05:09:16.572Z,18.37
2023-04-28T05:11:45.092Z,18.46
2023-04-28T05:14:13.330Z,18.44
2023-04-28T05:16:42.367Z,18.71
2023-04-28T05:19:13.552Z,19.06
2023-04-28T05:21:42.440Z,19.36
2023-04-28T05:24:12.069Z,19.72
2023-04-28T05:26:40.113Z,19.99
2023-04-28T05:29:12.292Z,20.14
2023-04-28T05:31:40.800Z,20.59
2023-04-28T05:34:12.331Z,20.98
2023-04-28T05:36:40.546Z,21.25
2023-04-28T05:39:11.528Z,21.52
2023-04-28T05:41:41.996Z,21.78
2023-04-28T05:44:12.282Z,22.01
2023-04-28T05:46:41.735Z,22.34
2023-04-28T05:49:11.592Z,22.56
2023-04-28T05:51:42.942Z,22.60
2023-04-28T05:54:11.635Z,22.60
2023-04-28T05:56:43.794Z,22.45
2023-04-28T05:59:11.864Z,22.33
2023-04-28T06:01:40.081Z,22.35
2023-04-28T06:04:09.712Z,22.48
2023-04-28T06:06:38.131Z,22.19
2023-04-28T06:09:06.302Z,22.12
2023-04-28T06:11:34.786Z,22.05
2023-04-28T06:14:02.952Z,22.19
2023-04-28T06:16:31.633Z,21.94
2023-04-28T06:19:04.016Z,22.27
2023-04-28T06:21:36.791Z,22.46
2023-04-28T06:24:08.243Z,22.53
2023-04-28T06:26:37.158Z,22.68
2023-04-28T06:29:05.402Z,23.01
2023-04-28T06:31:34.146Z,23.24
2023-04-28T06:34:02.571Z,23.41
2023-04-28T06:36:30.745Z,23.70
2023-04-28T06:38:59.437Z,23.71
2023-04-28T06:41:30.688Z,23.79
2023-04-28T06:44:01.012Z,23.86
2023-04-28T06:46:32.148Z,23.83
2023-04-28T06:49:00.857Z,22.90
2023-04-28T06:51:33.210Z,22.22
2023-04-28T06:54:01.579Z,21.47
2023-04-28T06:56:29.753Z,20.81
2023-04-28T06:58:59.065Z,21.25
2023-04-28T07:01:27.558Z,21.90
2023-04-28T07:03:55.976Z,22.04
2023-04-28T07:06:24.741Z,22.14
2023-04-28T07:08:54.814Z,22.46
2023-04-28T07:11:24.943Z,22.30
2023-04-28T07:13:53.006Z,21.47
2023-04-28T07:16:22.938Z,20.91
2023-04-28T07:18:51.298Z,20.30
2023-04-28T07:21:47.325Z,19.98
2023-04-28T07:24:16.120Z,19.91
2023-04-28T07:26:45.000Z,19.85
2023-04-28T07:29:15.944Z,19.70
2023-04-28T07:31:46.486Z,19.51
2023-04-28T07:34:15.359Z,19.36
2023-04-28T07:36:44.351Z,19.29
2023-04-28T07:39:12.522Z,19.42
2023-04-28T07:41:40.998Z,19.50
2023-04-28T07:44:10.476Z,19.42
2023-04-28T07:46:40.129Z,19.28
2023-04-28T07:49:08.704Z,19.28
2023-04-28T07:51:37.087Z,19.25
2023-04-28T07:54:06.568Z,19.24
2023-04-28T07:56:36.488Z,19.22
2023-04-28T07:59:04.971Z,19.02
2023-04-28T08:01:33.042Z,18.80
2023-04-28T08:04:01.717Z,18.53
2023-04-28T08:06:30.412Z,18.06
2023-04-28T08:09:02.704Z,17.88
2023-04-28T08:11:30.859Z,18.17
2023-04-28T08:14:03.537Z,18.16
2023-04-28T08:16:38.769Z,18.48
2023-04-28T08:19:07.847Z,18.41
2023-04-28T08:21:36.573Z,17.42
2023-04-28T08:24:05.131Z,17.10
2023-04-28T08:26:34.014Z,16.75
2023-04-28T08:29:02.193Z,16.96
2023-04-28T08:31:30.731Z,17.22
2023-04-28T08:34:00.510Z,17.45
2023-04-28T08:36:33.067Z,17.12
2023-04-28T08:39:04.101Z,17.08
2023-04-28T08:41:32.888Z,17.47
2023-04-28T08:44:01.265Z,17.56
2023-04-28T08:46:29.654Z,17.61
2023-04-28T08:49:02.345Z,17.61
2023-04-28T08:51:39.031Z,17.72
2023-04-28T08:56:40.868Z,18.07
2023-04-28T08:59:09.573Z,18.06
2023-04-28T09:01:38.056Z,18.06
2023-04-28T09:04:07.492Z,18.01
2023-04-28T09:06:39.336Z,17.30
2023-04-28T09:09:27.189Z,16.97
2023-04-28T09:12:00.129Z,17.11
2023-04-28T09:14:30.968Z,17.36
2023-04-28T09:16:59.231Z,17.68
2023-04-28T09:19:38.678Z,18.06
2023-04-28T09:22:21.893Z,18.37
2023-04-28T09:25:14.641Z,18.61
2023-04-28T09:27:43.020Z,18.66
2023-04-28T09:30:12.010Z,18.77
2023-04-28T09:32:43.190Z,18.74
2023-04-28T09:35:11.509Z,18.73
2023-04-28T09:37:39.968Z,18.84
2023-04-28T09:40:09.723Z,19.00
2023-04-28T09:42:38.919Z,19.05
2023-04-28T09:45:31.680Z,19.16
2023-04-28T09:48:13.659Z,19.07
2023-04-28T09:50:42.454Z,18.94
2023-04-28T09:53:14.013Z,19.00
2023-04-28T09:55:43.110Z,18.91
2023-04-28T09:58:12.819Z,18.93
2023-04-28T10:00:41.195Z,18.97
2023-04-28T10:03:13.169Z,18.82
2023-04-28T10:06:10.446Z,18.48
2023-04-28T10:08:40.421Z,17.51
2023-04-28T10:11:10.446Z,17.59
2023-04-28T10:13:39.238Z,17.66
2023-04-28T10:16:34.639Z,17.80
2023-04-28T10:19:03.648Z,18.02
2023-04-28T10:21:32.011Z,18.27
2023-04-28T10:24:47.597Z,18.54
2023-04-28T10:27:16.589Z,18.47
2023-04-28T10:29:44.760Z,18.30
2023-04-28T10:32:21.411Z,18.33
2023-04-28T10:34:50.883Z,18.46
2023-04-28T10:37:19.834Z,18.54
2023-04-28T10:40:26.434Z,17.96
2023-04-28T10:42:57.062Z,18.17
2023-04-28T10:45:56.236Z,18.40
2023-04-28T10:48:35.181Z,18.51
2023-04-28T10:51:06.947Z,18.34
2023-04-28T10:53:45.381Z,18.51
2023-04-28T10:56:25.272Z,18.75
2023-04-28T10:58:55.193Z,18.77
2023-04-28T11:01:29.265Z,18.46
2023-04-28T11:04:19.843Z,18.26
2023-04-28T11:07:09.685Z,18.23
2023-04-28T11:09:38.388Z,18.27
2023-04-28T11:12:11.450Z,18.21
2023-04-28T11:14:43.234Z,18.15
2023-04-28T11:17:14.674Z,17.95
2023-04-28T11:19:45.698Z,18.00
2023-04-28T11:22:26.884Z,18.15
2023-04-28T11:25:09.387Z,18.08
2023-04-28T11:27:37.864Z,18.19
2023-04-28T11:30:22.968Z,18.35
2023-04-28T11:32:51.927Z,18.42
2023-04-28T11:35:20.510Z,18.45
2023-04-28T11:38:04.755Z,18.57
2023-04-28T11:40:33.062Z,18.74
2023-04-28T11:43:15.029Z,18.88
2023-04-28T11:45:48.084Z,18.86
2023-04-28T11:48:22.497Z,18.86
2023-04-28T11:50:50.715Z,18.74
2023-04-28T11:53:19.170Z,18.55
2023-04-28T11:55:47.676Z,18.25
2023-04-28T11:58:25.679Z,18.14
2023-04-28T12:01:12.082Z,18.15
2023-04-28T12:03:44.899Z,18.18
2023-04-28T12:06:21.229Z,18.26
2023-04-28T12:08:49.605Z,18.27
2023-04-28T12:11:20.139Z,18.10
2023-04-28T12:14:09.400Z,17.95
2023-04-28T12:16:47.507Z,17.66
2023-04-28T12:19:16.502Z,17.58
2023-04-28T12:22:06.484Z,17.48
2023-04-28T12:24:39.878Z,17.02
2023-04-28T12:27:26.070Z,17.09
2023-04-28T12:29:56.503Z,17.14
2023-04-28T12:32:51.598Z,17.18
2023-04-28T12:35:22.858Z,17.33
2023-04-28T12:37:51.634Z,17.46
2023-04-28T12:40:20.350Z,17.52
2023-04-28T12:42:50.559Z,17.62
2023-04-28T12:45:18.928Z,17.63
2023-04-28T12:47:49.101Z,17.64
2023-04-28T12:50:17.590Z,17.52
2023-04-28T12:52:46.104Z,17.43
2023-04-28T12:55:14.822Z,17.13
2023-04-28T12:57:43.276Z,17.09
2023-04-28T13:00:16.668Z,16.92
2023-04-28T13:02:45.737Z,16.98
2023-04-28T13:05:14.752Z,17.01
2023-04-28T13:07:44.362Z,16.98
2023-04-28T13:10:14.171Z,16.80
2023-04-28T13:12:43.470Z,16.66
2023-04-28T13:15:12.165Z,16.50
2023-04-28T13:17:40.597Z,16.33
2023-04-28T13:20:09.842Z,16.22
2023-04-28T13:22:38.421Z,16.01
2023-04-28T13:25:07.520Z,15.75
2023-04-28T13:27:37.475Z,15.59
2023-04-28T13:30:09.297Z,15.69
2023-04-28T13:32:38.581Z,15.75
2023-04-28T13:35:09.725Z,15.85
2023-04-28T13:41:44.584Z,16.01
2023-04-28T13:44:14.018Z,15.97
2023-04-28T13:46:43.080Z,15.91
2023-04-28T13:49:11.245Z,15.82
2023-04-28T13:51:39.731Z,15.69
2023-04-28T13:54:11.100Z,15.75
2023-04-28T13:56:39.563Z,15.89
2023-04-28T13:59:08.028Z,15.91
2023-04-28T14:01:36.921Z,16.06
2023-04-28T14:04:05.635Z,16.22
2023-04-28T14:06:35.114Z,16.23
2023-04-28T14:09:05.850Z,16.25
2023-04-28T14:11:34.103Z,16.27
2023-04-28T14:14:02.609Z,16.28
2023-04-28T14:16:31.419Z,16.26
2023-04-28T14:18:59.779Z,16.22
2023-04-28T14:21:28.683Z,16.20
2023-04-28T14:23:56.926Z,16.26
2023-04-28T14:26:25.620Z,16.32
2023-04-28T14:28:54.311Z,16.22
2023-04-28T14:31:22.697Z,16.08
2023-04-28T14:33:51.270Z,16.04
2023-04-28T14:36:19.969Z,15.97
2023-04-28T14:38:49.348Z,16.06
2023-04-28T14:41:17.730Z,16.07
2023-04-28T14:43:46.837Z,15.95
2023-04-28T14:46:17.983Z,15.85
2023-04-28T14:48:46.578Z,15.81
2023-04-28T14:51:14.720Z,15.69
2023-04-28T14:53:43.709Z,15.61
2023-04-28T14:56:37.694Z,15.35
2023-04-28T14:59:06.375Z,15.18
2023-04-28T15:01:34.583Z,15.20
2023-04-28T15:04:05.665Z,15.29
2023-04-28T15:06:35.402Z,15.36
2023-04-28T15:09:04.695Z,15.36
2023-04-28T15:11:34.007Z,15.18
2023-04-28T15:14:04.838Z,15.09
2023-04-28T15:16:34.586Z,15.01
2023-04-28T15:19:04.166Z,14.87
2023-04-28T15:21:33.046Z,14.84
2023-04-28T15:24:01.210Z,14.80
2023-04-28T15:26:30.095Z,14.81
2023-04-28T15:28:59.608Z,14.84
2023-04-28T15:31:28.721Z,14.89
2023-04-28T15:33:57.603Z,14.87
2023-04-28T15:36:27.415Z,14.75
2023-04-28T15:38:56.602Z,14.69
2023-04-28T15:41:25.294Z,14.60
2023-04-28T15:43:57.658Z,14.44
2023-04-28T15:46:26.070Z,14.42
2023-04-28T15:48:55.337Z,14.43
2023-04-28T15:51:23.712Z,14.43
2023-04-28T15:53:52.492Z,14.43
2023-04-28T15:56:21.392Z,14.37
2023-04-28T15:58:51.179Z,14.38
2023-04-28T16:01:19.414Z,14.28
2023-04-28T16:03:48.415Z,14.24
2023-04-28T16:07:10.344Z,14.16
2023-04-28T16:09:38.582Z,14.04
2023-04-28T16:12:06.999Z,13.99
2023-04-28T16:14:38.306Z,14.02
2023-04-28T16:17:07.457Z,13.96
2023-04-28T16:19:37.011Z,13.95
2023-04-28T16:22:05.008Z,13.96
2023-04-28T16:24:33.356Z,13.97
2023-04-28T16:27:02.062Z,13.95
2023-04-28T16:29:30.315Z,13.95
2023-04-28T16:31:59.350Z,13.86
2023-04-28T16:34:27.481Z,13.78
2023-04-28T16:36:55.656Z,13.71
2023-04-28T16:39:23.662Z,13.58
2023-04-28T16:41:53.636Z,13.44
2023-04-28T16:44:22.171Z,13.38
2023-04-28T16:46:51.006Z,13.36
2023-04-28T16:49:21.678Z,13.22
2023-04-28T16:51:59.711Z,13.13
2023-04-28T16:54:29.042Z,13.08
2023-04-28T16:56:59.470Z,13.02
2023-04-28T16:59:31.230Z,12.95
2023-04-28T17:02:00.834Z,12.90
2023-04-28T17:04:29.807Z,12.88
2023-04-28T17:06:59.132Z,12.84
2023-04-28T17:09:29.039Z,12.86
2023-04-28T17:11:57.668Z,12.83
2023-04-28T17:14:26.195Z,12.78
2023-04-28T17:16:54.911Z,12.71
2023-04-28T17:19:23.471Z,12.65
2023-04-28T17:21:53.011Z,12.60
2023-04-28T17:24:21.965Z,12.57
2023-04-28T17:26:51.575Z,12.52
2023-04-28T17:29:19.587Z,12.49
2023-04-28T17:31:47.978Z,12.39
2023-04-28T17:34:17.567Z,12.37
2023-04-28T17:36:48.640Z,12.32
2023-04-28T17:39:18.280Z,12.23
2023-04-28T17:45:55.283Z,12.15
2023-04-28T17:48:23.863Z,12.10
2023-04-28T17:50:52.650Z,12.03
2023-04-28T17:53:20.823Z,11.97
2023-04-28T17:55:49.550Z,11.95
2023-04-28T17:58:19.732Z,11.90
2023-04-28T18:00:48.227Z,11.86
2023-04-28T18:03:16.796Z,11.82
2023-04-28T18:05:45.066Z,11.77
2023-04-28T18:08:14.653Z,11.74
2023-04-28T18:10:42.742Z,11.66
2023-04-28T18:13:11.226Z,11.63
2023-04-28T18:15:39.601Z,11.65
2023-04-28T18:18:07.775Z,11.64
2023-04-28T18:20:37.279Z,11.53
2023-04-28T18:23:07.815Z,11.33
2023-04-28T18:25:37.414Z,11.23
2023-04-28T18:28:06.201Z,11.23
2023-04-28T18:30:38.181Z,11.28
2023-04-28T18:33:09.830Z,11.34
2023-04-28T18:35:38.193Z,11.36
2023-04-28T18:38:06.401Z,11.37
2023-04-28T18:40:39.362Z,11.37
2023-04-28T18:43:08.036Z,11.36
2023-04-28T18:45:37.402Z,11.36
2023-04-28T18:48:06.606Z,11.35
2023-04-28T18:50:38.291Z,11.30
2023-04-28T18:53:06.989Z,10.97
2023-04-28T18:55:35.461Z,10.79
2023-04-28T18:58:04.491Z,10.71
2023-04-28T19:00:35.685Z,10.74
2023-04-28T19:03:06.325Z,10.73
2023-04-28T19:05:35.637Z,10.74
2023-04-28T19:08:08.630Z,10.77
2023-04-28T19:10:40.480Z,10.78
2023-04-28T19:13:08.914Z,10.81
2023-04-28T19:15:37.543Z,10.82
2023-04-28T19:18:05.817Z,10.80
2023-04-28T19:20:34.541Z,10.73
2023-04-28T19:23:32.066Z,10.64
2023-04-28T19:26:03.332Z,10.59
2023-04-28T19:28:31.699Z,10.56
2023-04-28T19:31:00.196Z,10.46
2023-04-28T19:33:28.859Z,10.42
2023-04-28T19:35:57.348Z,10.37
2023-04-28T19:38:26.858Z,10.35
2023-04-28T19:41:01.241Z,10.34
2023-04-28T19:43:30.480Z,10.29
2023-04-28T19:45:58.915Z,10.20
2023-04-28T19:48:27.173Z,10.18
2023-04-28T19:50:55.890Z,10.20
2023-04-28T19:53:24.579Z,10.21
2023-04-28T19:55:53.074Z,10.22
2023-04-28T19:58:23.790Z,10.20
2023-04-28T20:00:54.323Z,10.21
2023-04-28T20:03:23.093Z,10.23
2023-04-28T20:05:52.519Z,10.20
2023-04-28T20:08:21.723Z,10.13
2023-04-28T20:10:50.901Z,10.09
2023-04-28T20:13:19.590Z,10.06
2023-04-28T20:15:47.902Z,10.03
2023-04-28T20:18:16.444Z,10.00
2023-04-28T20:20:45.024Z,9.97
2023-04-28T20:23:13.286Z,9.95
2023-04-28T20:25:41.988Z,9.92
2023-04-28T20:28:10.492Z,9.90
2023-04-28T20:30:40.488Z,9.87
2023-04-28T20:33:09.477Z,9.81
2023-04-28T20:35:38.304Z,9.73
2023-04-28T20:38:08.276Z,9.65
2023-04-28T20:40:42.393Z,9.56
2023-04-28T20:43:11.598Z,9.47
2023-04-28T20:45:42.423Z,9.40
2023-04-28T20:48:12.390Z,9.33
2023-04-28T20:50:41.435Z,9.24
2023-04-28T20:53:13.701Z,9.18
2023-04-28T20:55:42.490Z,9.12
2023-04-28T20:58:19.687Z,9.08
2023-04-28T21:00:51.576Z,9.01
2023-04-28T21:03:24.997Z,8.94
2023-04-28T21:05:53.210Z,8.88
2023-04-28T21:08:21.726Z,8.80
2023-04-28T21:10:50.069Z,8.73
2023-04-28T21:13:19.565Z,8.67
2023-04-28T21:15:47.836Z,8.63
2023-04-28T21:18:16.178Z,8.56
2023-04-28T21:20:44.717Z,8.49
2023-04-28T21:23:13.301Z,8.40
2023-04-28T21:25:41.985Z,8.32
2023-04-28T21:31:22.381Z,8.13
2023-04-28T21:33:50.620Z,8.03
2023-04-28T21:36:19.638Z,7.93
2023-04-28T21:38:49.418Z,7.86
2023-04-28T21:41:17.495Z,7.81
2023-04-28T21:43:45.969Z,7.72
2023-04-28T21:46:14.803Z,7.63
2023-04-28T21:48:44.579Z,7.55
2023-04-28T21:51:13.285Z,7.49
2023-04-28T21:53:41.332Z,7.43
2023-04-28T21:56:09.598Z,7.39
2023-04-28T22:03:24.973Z,7.30
2023-04-28T22:05:53.596Z,7.26
2023-04-28T22:08:42.448Z,7.23
2023-04-28T22:11:10.602Z,7.21
2023-04-28T22:13:38.696Z,7.20
2023-04-28T22:16:08.258Z,7.19
2023-04-28T22:18:36.579Z,7.20
2023-04-28T22:21:06.610Z,7.17
2023-04-28T22:23:34.664Z,7.15
2023-04-28T22:26:30.800Z,7.14
2023-04-28T22:29:00.194Z,7.11
2023-04-28T22:31:28.312Z,7.09
2023-04-28T22:33:56.440Z,7.07
2023-04-28T22:36:24.627Z,7.02
2023-04-28T22:38:52.549Z,6.97
2023-04-28T22:41:26.743Z,6.94
2023-04-28T22:43:54.868Z,6.90
2023-04-28T22:46:23.282Z,6.86
2023-04-28T22:48:51.616Z,6.83
2023-04-28T22:51:20.453Z,6.81
2023-04-28T22:53:48.923Z,6.77
2023-04-28T22:56:17.076Z,6.75
2023-04-28T23:03:29.905Z,6.66
2023-04-28T23:05:58.591Z,6.62
2023-04-28T23:08:27.280Z,6.60
2023-04-28T23:10:57.392Z,6.58
2023-04-28T23:13:25.769Z,6.57
2023-04-28T23:15:53.858Z,6.55
2023-04-28T23:23:07.609Z,6.47
2023-04-28T23:25:37.318Z,6.43
2023-04-28T23:28:05.613Z,6.41
2023-04-28T23:30:33.693Z,6.37
2023-04-28T23:33:02.112Z,6.35
2023-04-28T23:35:30.215Z,6.34
2023-04-28T23:37:59.417Z,6.33
2023-04-28T23:40:27.792Z,6.30
2023-04-28T23:42:56.068Z,6.28
2023-04-28T23:45:24.108Z,6.25
2023-04-28T23:51:53.770Z,6.17
2023-04-28T23:54:22.968Z,6.16
2023-04-28T23:56:51.245Z,6.15
2023-04-28T23:59:19.926Z,6.14
